createdAt,value
2023-01-29T00:00:35.763Z,96193.16
2023-01-29T00:03:06.263Z,96190.88
2023-01-29T00:05:37.995Z,96186.91
2023-01-29T00:08:08.432Z,96190.97
2023-01-29T00:10:38.291Z,96198.03
2023-01-29T00:13:10.734Z,96190.97
2023-01-29T00:15:41.340Z,96196.13
2023-01-29T00:18:11.406Z,96197.50
2023-01-29T00:20:41.551Z,96197.91
2023-01-29T00:23:11.609Z,96198.84
2023-01-29T00:25:43.095Z,96203.88
2023-01-29T00:28:15.821Z,96206.97
2023-01-29T00:30:46.996Z,96208.63
2023-01-29T00:33:16.831Z,96209.03
2023-01-29T00:35:47.179Z,96213.78
2023-01-29T00:38:17.682Z,96213.13
2023-01-29T00:41:00.138Z,96200.06
2023-01-29T00:43:45.283Z,96207.25
2023-01-29T00:46:15.802Z,96209.59
2023-01-29T00:48:45.888Z,96205.50
2023-01-29T00:51:16.214Z,96204.53
2023-01-29T00:53:46.072Z,96210.53
2023-01-29T00:56:16.326Z,96215.81
2023-01-29T00:58:48.857Z,96212.84
2023-01-29T01:01:38.958Z,96215.97
2023-01-29T01:04:06.429Z,96209.97
2023-01-29T01:06:36.491Z,96207.94
2023-01-29T01:09:19.461Z,96214.19
2023-01-29T01:11:49.844Z,96203.31
2023-01-29T01:14:24.260Z,96208.34
2023-01-29T01:16:54.343Z,96210.78
2023-01-29T01:19:24.633Z,96206.97
2023-01-29T01:21:54.487Z,96214.56
2023-01-29T01:24:25.164Z,96213.34
2023-01-29T01:26:55.130Z,96212.94
2023-01-29T01:29:27.835Z,96215.09
2023-01-29T01:31:58.020Z,96219.00
2023-01-29T01:34:28.025Z,96220.25
2023-01-29T01:36:59.279Z,96221.50
2023-01-29T01:39:29.186Z,96219.44
2023-01-29T01:41:59.759Z,96219.56
2023-01-29T01:45:04.259Z,96220.28
2023-01-29T01:47:41.080Z,96223.13
2023-01-29T01:50:18.195Z,96210.38
2023-01-29T01:52:53.906Z,96205.06
2023-01-29T01:55:29.944Z,96208.47
2023-01-29T01:58:07.411Z,96215.66
2023-01-29T02:00:42.175Z,96211.31
2023-01-29T02:03:28.107Z,96217.97
2023-01-29T02:06:14.268Z,96207.66
2023-01-29T02:09:08.734Z,96213.75
2023-01-29T02:11:39.819Z,96210.50
2023-01-29T02:14:10.200Z,96210.50
2023-01-29T02:16:42.801Z,96222.72
2023-01-29T02:19:24.772Z,96220.66
2023-01-29T02:22:17.285Z,96228.25
2023-01-29T02:25:10.170Z,96226.66
2023-01-29T02:28:18.849Z,96228.69
2023-01-29T02:30:58.415Z,96209.66
2023-01-29T02:33:41.738Z,96211.41
2023-01-29T02:36:23.432Z,96212.94
2023-01-29T02:39:04.540Z,96212.13
2023-01-29T02:41:41.835Z,96209.25
2023-01-29T02:44:24.767Z,96204.91
2023-01-29T02:47:05.565Z,96201.13
2023-01-29T02:49:41.857Z,96196.09
2023-01-29T02:52:22.248Z,96199.25
2023-01-29T02:55:00.162Z,96189.56
2023-01-29T02:57:35.558Z,96187.69
2023-01-29T03:00:15.628Z,96187.56
2023-01-29T03:02:51.850Z,96199.34
2023-01-29T03:05:30.259Z,96192.13
2023-01-29T03:08:10.364Z,96191.47
2023-01-29T03:10:46.929Z,96189.41
2023-01-29T03:13:23.948Z,96195.53
2023-01-29T03:16:05.947Z,96193.38
2023-01-29T03:18:51.005Z,96198.78
2023-01-29T03:21:40.815Z,96199.06
2023-01-29T03:24:32.169Z,96201.41
2023-01-29T03:27:20.899Z,96208.31
2023-01-29T03:30:09.241Z,96208.84
2023-01-29T03:32:57.216Z,96212.22
2023-01-29T03:35:37.569Z,96211.69
2023-01-29T03:38:13.275Z,96211.94
2023-01-29T03:40:51.875Z,96206.94
2023-01-29T03:43:35.501Z,96202.19
2023-01-29T03:46:18.824Z,96202.88
2023-01-29T03:49:02.739Z,96208.31
2023-01-29T03:51:39.461Z,96194.47
2023-01-29T03:54:21.421Z,96189.28
2023-01-29T03:57:02.951Z,96187.81
2023-01-29T03:59:48.852Z,96178.72
2023-01-29T04:02:55.081Z,96166.22
2023-01-29T04:05:34.555Z,96162.59
2023-01-29T04:08:25.015Z,96164.06
2023-01-29T04:11:01.798Z,96169.47
2023-01-29T04:13:36.383Z,96167.88
2023-01-29T04:16:13.405Z,96168.69
2023-01-29T04:19:09.539Z,96174.63
2023-01-29T04:21:52.809Z,96173.25
2023-01-29T04:24:22.743Z,96172.63
2023-01-29T04:27:08.013Z,96175.06
2023-01-29T04:30:00.824Z,96173.72
2023-01-29T04:32:48.888Z,96176.28
2023-01-29T04:35:33.254Z,96175.88
2023-01-29T04:38:31.145Z,96173.44
2023-01-29T04:41:12.543Z,96186.47
2023-01-29T04:43:55.929Z,96184.16
2023-01-29T04:46:36.741Z,96179.28
2023-01-29T04:49:20.395Z,96180.63
2023-01-29T04:52:01.818Z,96173.19
2023-01-29T04:54:50.309Z,96175.91
2023-01-29T04:57:27.622Z,96173.72
2023-01-29T05:00:07.364Z,96173.31
2023-01-29T05:02:42.049Z,96165.44
2023-01-29T05:05:16.712Z,96174.28
2023-01-29T05:07:48.582Z,96165.72
2023-01-29T05:10:25.995Z,96176.28
2023-01-29T05:13:02.975Z,96177.25
2023-01-29T05:15:40.258Z,96185.41
2023-01-29T05:18:11.618Z,96186.88
2023-01-29T05:20:46.281Z,96185.66
2023-01-29T05:23:19.807Z,96183.75
2023-01-29T05:25:54.376Z,96195.00
2023-01-29T05:28:21.648Z,96202.78
2023-01-29T05:30:54.212Z,96210.22
2023-01-29T05:33:26.868Z,96215.91
2023-01-29T05:35:57.659Z,96219.97
2023-01-29T05:38:28.150Z,96223.25
2023-01-29T05:41:01.930Z,96212.13
2023-01-29T05:43:32.056Z,96213.34
2023-01-29T05:46:04.198Z,96214.13
2023-01-29T05:48:34.094Z,96212.94
2023-01-29T05:51:05.580Z,96219.72
2023-01-29T05:53:37.307Z,96225.00
2023-01-29T05:56:10.636Z,96222.66
2023-01-29T05:58:41.373Z,96215.75
2023-01-29T06:01:13.134Z,96222.81
2023-01-29T06:03:44.148Z,96220.50
2023-01-29T06:06:14.997Z,96226.06
2023-01-29T06:08:45.063Z,96221.31
2023-01-29T06:11:18.526Z,96220.63
2023-01-29T06:13:49.268Z,96219.16
2023-01-29T06:16:19.642Z,96212.09
2023-01-29T06:18:49.481Z,96213.31
2023-01-29T06:21:20.217Z,96212.47
2023-01-29T06:23:50.958Z,96217.09
2023-01-29T06:26:23.763Z,96209.09
2023-01-29T06:28:54.130Z,96214.94
2023-01-29T06:31:37.976Z,96218.44
2023-01-29T06:34:08.873Z,96218.84
2023-01-29T06:36:39.211Z,96219.66
2023-01-29T06:39:09.250Z,96217.09
2023-01-29T06:41:42.314Z,96225.13
2023-01-29T06:44:12.180Z,96217.53
2023-01-29T06:46:42.065Z,96216.72
2023-01-29T06:49:12.443Z,96215.81
2023-01-29T06:51:42.662Z,96220.66
2023-01-29T06:54:13.448Z,96220.97
2023-01-29T06:56:45.924Z,96219.19
2023-01-29T06:59:16.798Z,96223.78
2023-01-29T07:01:47.052Z,96216.00
2023-01-29T07:04:17.917Z,96227.53
2023-01-29T07:06:48.119Z,96228.16
2023-01-29T07:09:18.593Z,96228.13
2023-01-29T07:11:51.174Z,96218.50
2023-01-29T07:14:21.662Z,96224.03
2023-01-29T07:16:51.784Z,96217.97
2023-01-29T07:19:22.157Z,96209.91
2023-01-29T07:21:52.190Z,96199.19
2023-01-29T07:24:22.625Z,96201.56
2023-01-29T07:26:55.227Z,96203.31
2023-01-29T07:29:25.746Z,96204.06
2023-01-29T07:31:55.716Z,96206.09
2023-01-29T07:34:25.699Z,96204.94
2023-01-29T07:36:57.272Z,96204.50
2023-01-29T07:39:27.510Z,96193.94
2023-01-29T07:42:00.472Z,96196.66
2023-01-29T07:44:31.658Z,96194.69
2023-01-29T07:47:01.979Z,96187.00
2023-01-29T07:49:31.820Z,96195.75
2023-01-29T07:52:02.247Z,96198.19
2023-01-29T07:54:32.104Z,96195.81
2023-01-29T07:57:04.626Z,96195.69
2023-01-29T07:59:34.723Z,96193.25
2023-01-29T08:02:04.638Z,96192.94
2023-01-29T08:04:34.452Z,96195.00
2023-01-29T08:07:04.857Z,96185.72
2023-01-29T08:09:34.997Z,96185.69
2023-01-29T08:12:07.880Z,96186.91
2023-01-29T08:14:37.667Z,96191.50
2023-01-29T08:17:07.825Z,96190.66
2023-01-29T08:19:37.954Z,96191.84
2023-01-29T08:22:08.500Z,96189.94
2023-01-29T08:24:53.444Z,96187.06
2023-01-29T08:27:26.937Z,96197.19
2023-01-29T08:29:57.393Z,96204.22
2023-01-29T08:32:27.264Z,96196.78
2023-01-29T08:34:57.477Z,96198.56
2023-01-29T08:37:27.378Z,96203.66
2023-01-29T08:39:57.304Z,96202.44
2023-01-29T08:42:29.937Z,96212.19
2023-01-29T08:44:59.809Z,96204.81
2023-01-29T08:47:30.082Z,96215.94
2023-01-29T08:49:59.899Z,96221.22
2023-01-29T08:52:29.952Z,96231.44
2023-01-29T08:55:00.121Z,96229.28
2023-01-29T08:57:32.555Z,96229.13
2023-01-29T09:00:04.604Z,96234.44
2023-01-29T09:02:34.931Z,96235.81
2023-01-29T09:05:05.185Z,96239.06
2023-01-29T09:07:35.285Z,96244.47
2023-01-29T09:10:06.134Z,96241.75
2023-01-29T09:12:38.525Z,96242.56
2023-01-29T09:15:10.128Z,96254.38
2023-01-29T09:17:41.031Z,96253.03
2023-01-29T09:20:13.344Z,96262.41
2023-01-29T09:22:43.169Z,96265.81
2023-01-29T09:25:13.491Z,96261.59
2023-01-29T09:27:45.931Z,96272.19
2023-01-29T09:30:17.433Z,96271.38
2023-01-29T09:32:53.506Z,96267.44
2023-01-29T09:35:24.483Z,96271.91
2023-01-29T09:37:55.342Z,96274.47
2023-01-29T09:40:29.399Z,96275.03
2023-01-29T09:43:09.277Z,96276.53
2023-01-29T09:45:47.664Z,96282.78
2023-01-29T09:48:18.139Z,96282.91
2023-01-29T09:50:55.163Z,96283.72
2023-01-29T09:53:34.018Z,96284.44
2023-01-29T09:56:09.016Z,96279.13
2023-01-29T09:58:45.747Z,96279.13
2023-01-29T10:01:24.051Z,96273.69
2023-01-29T10:04:18.876Z,96278.69
2023-01-29T10:07:05.574Z,96271.78
2023-01-29T10:10:05.437Z,96277.63
2023-01-29T10:13:05.715Z,96271.50
2023-01-29T10:15:52.085Z,96269.22
2023-01-29T10:18:46.871Z,96273.94
2023-01-29T10:21:39.254Z,96265.97
2023-01-29T10:24:25.290Z,96265.94
2023-01-29T10:26:55.559Z,96267.72
2023-01-29T10:29:27.047Z,96268.81
2023-01-29T10:32:06.091Z,96269.75
2023-01-29T10:34:45.028Z,96261.59
2023-01-29T10:37:21.590Z,96264.44
2023-01-29T10:39:51.949Z,96262.53
2023-01-29T10:42:33.344Z,96254.13
2023-01-29T10:45:19.573Z,96248.69
2023-01-29T10:48:33.946Z,96251.94
2023-01-29T10:51:18.444Z,96254.53
2023-01-29T10:54:06.382Z,96247.59
2023-01-29T10:56:50.129Z,96254.13
2023-01-29T10:59:39.539Z,96254.38
2023-01-29T11:02:19.681Z,96251.50
2023-01-29T11:04:52.242Z,96246.63
2023-01-29T11:07:27.806Z,96247.16
2023-01-29T11:10:05.753Z,96242.13
2023-01-29T11:12:38.343Z,96242.69
2023-01-29T11:15:18.993Z,96238.88
2023-01-29T11:18:05.610Z,96239.56
2023-01-29T11:20:38.759Z,96226.25
2023-01-29T11:23:09.145Z,96235.22
2023-01-29T11:25:39.386Z,96233.84
2023-01-29T11:28:10.031Z,96230.63
2023-01-29T11:30:42.625Z,96223.00
2023-01-29T11:33:21.924Z,96222.88
2023-01-29T11:35:55.767Z,96216.09
2023-01-29T11:38:28.525Z,96219.22
2023-01-29T11:41:10.299Z,96217.84
2023-01-29T11:43:40.208Z,96215.16
2023-01-29T11:46:17.798Z,96210.81
2023-01-29T11:48:59.142Z,96209.06
2023-01-29T11:51:44.090Z,96186.63
2023-01-29T11:54:22.576Z,96180.69
2023-01-29T11:56:52.876Z,96171.16
2023-01-29T11:59:39.423Z,96161.50
2023-01-29T12:02:23.913Z,96146.84
2023-01-29T12:04:54.312Z,96147.81
2023-01-29T12:07:27.605Z,96142.25
2023-01-29T12:09:59.790Z,96135.88
2023-01-29T12:12:38.111Z,96141.88
2023-01-29T12:15:29.423Z,96137.66
2023-01-29T12:18:08.693Z,96143.63
2023-01-29T12:20:44.313Z,96144.81
2023-01-29T12:23:28.936Z,96142.91
2023-01-29T12:26:08.113Z,96146.53
2023-01-29T12:28:52.141Z,96155.53
2023-01-29T12:31:32.513Z,96155.63
2023-01-29T12:34:16.342Z,96164.75
2023-01-29T12:36:55.519Z,96154.56
2023-01-29T12:39:28.371Z,96142.63
2023-01-29T12:42:06.376Z,96141.50
2023-01-29T12:44:42.680Z,96137.69
2023-01-29T12:47:22.151Z,96142.19
2023-01-29T12:49:59.363Z,96134.44
2023-01-29T12:52:42.597Z,96133.78
2023-01-29T12:55:23.301Z,96126.41
2023-01-29T12:57:59.324Z,96123.25
2023-01-29T13:00:33.738Z,96113.88
2023-01-29T13:03:12.266Z,96107.78
2023-01-29T13:05:49.750Z,96101.22
2023-01-29T13:08:25.181Z,96090.16
2023-01-29T13:11:00.976Z,96085.56
2023-01-29T13:13:38.194Z,96083.63
2023-01-29T13:16:15.885Z,96075.78
2023-01-29T13:18:50.619Z,96080.75
2023-01-29T13:21:25.618Z,96072.66
2023-01-29T13:24:00.204Z,96063.28
2023-01-29T13:26:34.651Z,96068.13
2023-01-29T13:29:06.138Z,96072.09
2023-01-29T13:31:41.346Z,96064.31
2023-01-29T13:34:18.124Z,96076.53
2023-01-29T13:36:51.971Z,96072.72
2023-01-29T13:39:31.568Z,96067.06
2023-01-29T13:42:17.554Z,96065.56
2023-01-29T13:44:53.836Z,96058.91
2023-01-29T13:47:29.137Z,96057.06
2023-01-29T13:50:06.671Z,96057.25
2023-01-29T13:52:43.920Z,96057.41
2023-01-29T13:55:31.433Z,96050.63
2023-01-29T13:58:04.732Z,96056.66
2023-01-29T14:01:02.208Z,96049.16
2023-01-29T14:04:05.518Z,96037.19
2023-01-29T14:06:46.487Z,96045.06
2023-01-29T14:09:34.911Z,96041.91
2023-01-29T14:12:08.681Z,96034.25
2023-01-29T14:15:08.447Z,96038.13
2023-01-29T14:17:40.408Z,96032.41
2023-01-29T14:20:25.721Z,96024.97
2023-01-29T14:23:04.271Z,96029.16
2023-01-29T14:25:37.220Z,96029.28
2023-01-29T14:28:21.561Z,96036.28
2023-01-29T14:30:55.855Z,96037.66
2023-01-29T14:33:36.982Z,96038.03
2023-01-29T14:36:10.810Z,96034.81
2023-01-29T14:38:43.348Z,96038.34
2023-01-29T14:41:28.173Z,96046.88
2023-01-29T14:44:27.945Z,96058.97
2023-01-29T14:47:00.880Z,96057.22
2023-01-29T14:49:52.485Z,96056.41
2023-01-29T14:52:27.524Z,96062.94
2023-01-29T14:55:03.799Z,96063.50
2023-01-29T14:57:34.867Z,96064.31
2023-01-29T15:00:09.992Z,96058.84
2023-01-29T15:02:47.258Z,96052.06
2023-01-29T15:05:23.976Z,96053.72
2023-01-29T15:08:01.009Z,96038.91
2023-01-29T15:10:42.721Z,96037.53
2023-01-29T15:13:24.469Z,96039.84
2023-01-29T15:16:00.635Z,96039.47
2023-01-29T15:18:40.429Z,96042.88
2023-01-29T15:21:15.454Z,96044.88
2023-01-29T15:23:47.906Z,96039.84
2023-01-29T15:26:26.753Z,96037.94
2023-01-29T15:29:04.304Z,96050.28
2023-01-29T15:31:35.766Z,96052.25
2023-01-29T15:34:11.793Z,96051.69
2023-01-29T15:36:41.895Z,96054.13
2023-01-29T15:39:19.485Z,96056.25
2023-01-29T15:41:50.854Z,96046.78
2023-01-29T15:44:24.402Z,96048.97
2023-01-29T15:46:59.477Z,96054.97
2023-01-29T15:49:37.071Z,96056.59
2023-01-29T15:52:11.155Z,96061.34
2023-01-29T15:54:41.983Z,96057.69
2023-01-29T15:57:24.900Z,96058.00
2023-01-29T16:00:00.813Z,96052.53
2023-01-29T16:02:40.232Z,96063.94
2023-01-29T16:05:18.287Z,96055.00
2023-01-29T16:07:49.664Z,96065.44
2023-01-29T16:10:23.348Z,96066.00
2023-01-29T16:12:55.337Z,96058.50
2023-01-29T16:15:35.024Z,96061.50
2023-01-29T16:18:19.661Z,96068.31
2023-01-29T16:20:56.743Z,96063.13
2023-01-29T16:23:31.116Z,96069.13
2023-01-29T16:26:09.969Z,96077.13
2023-01-29T16:28:44.768Z,96078.34
2023-01-29T16:31:23.567Z,96071.84
2023-01-29T16:33:53.957Z,96078.63
2023-01-29T16:36:29.962Z,96070.75
2023-01-29T16:39:05.406Z,96073.31
2023-01-29T16:41:38.263Z,96071.72
2023-01-29T16:44:35.881Z,96070.88
2023-01-29T16:47:15.491Z,96080.53
2023-01-29T16:49:56.839Z,96080.81
2023-01-29T16:52:32.097Z,96094.50
2023-01-29T16:55:04.991Z,96095.19
2023-01-29T16:57:36.625Z,96095.72
2023-01-29T17:00:10.906Z,96093.16
2023-01-29T17:02:42.747Z,96092.88
2023-01-29T17:05:23.627Z,96106.97
2023-01-29T17:08:00.772Z,96112.28
2023-01-29T17:10:33.431Z,96114.84
2023-01-29T17:13:08.283Z,96110.66
2023-01-29T17:15:47.623Z,96112.13
2023-01-29T17:18:22.186Z,96094.50
2023-01-29T17:20:53.263Z,96109.13
2023-01-29T17:23:25.903Z,96109.56
2023-01-29T17:25:56.463Z,96112.56
2023-01-29T17:28:26.560Z,96110.94
2023-01-29T17:31:06.250Z,96111.75
2023-01-29T17:33:37.649Z,96113.22
2023-01-29T17:36:08.231Z,96103.88
2023-01-29T17:38:41.056Z,96113.75
2023-01-29T17:41:18.782Z,96107.09
2023-01-29T17:43:48.692Z,96105.59
2023-01-29T17:46:21.216Z,96107.94
2023-01-29T17:48:52.471Z,96104.00
2023-01-29T17:51:24.886Z,96105.91
2023-01-29T17:53:57.546Z,96111.31
2023-01-29T17:56:31.138Z,96110.09
2023-01-29T17:59:02.162Z,96108.59
2023-01-29T18:01:32.540Z,96111.88
2023-01-29T18:04:02.505Z,96100.34
2023-01-29T18:06:32.951Z,96099.91
2023-01-29T18:09:06.432Z,96100.88
2023-01-29T18:11:37.302Z,96098.16
2023-01-29T18:14:14.504Z,96097.34
2023-01-29T18:16:46.920Z,96106.97
2023-01-29T18:19:22.649Z,96099.53
2023-01-29T18:21:54.278Z,96099.78
2023-01-29T18:24:26.902Z,96087.03
2023-01-29T18:26:57.604Z,96092.59
2023-01-29T18:29:30.124Z,96093.53
2023-01-29T18:32:00.209Z,96095.31
2023-01-29T18:34:30.164Z,96087.56
2023-01-29T18:37:00.341Z,96093.28
2023-01-29T18:39:32.826Z,96096.25
2023-01-29T18:42:03.356Z,96092.72
2023-01-29T18:44:33.199Z,96088.13
2023-01-29T18:47:05.650Z,96087.84
2023-01-29T18:49:38.832Z,96089.19
2023-01-29T18:52:09.070Z,96091.38
2023-01-29T18:54:41.542Z,96095.69
2023-01-29T18:57:13.646Z,96092.72
2023-01-29T18:59:45.153Z,96097.16
2023-01-29T19:02:19.590Z,96092.44
2023-01-29T19:04:49.721Z,96093.09
2023-01-29T19:07:19.846Z,96095.91
2023-01-29T19:09:53.098Z,96098.06
2023-01-29T19:12:24.003Z,96093.88
2023-01-29T19:14:53.903Z,96091.94
2023-01-29T19:17:23.837Z,96098.72
2023-01-29T19:19:53.714Z,96092.16
2023-01-29T19:22:23.629Z,96090.91
2023-01-29T19:24:56.104Z,96095.75
2023-01-29T19:27:26.067Z,96093.47
2023-01-29T19:29:56.206Z,96093.19
2023-01-29T19:32:26.006Z,96093.84
2023-01-29T19:34:56.253Z,96090.03
2023-01-29T19:37:26.449Z,96096.34
2023-01-29T19:39:59.152Z,96086.47
2023-01-29T19:42:29.048Z,96082.28
2023-01-29T19:44:59.614Z,96083.19
2023-01-29T19:47:29.400Z,96083.47
2023-01-29T19:49:59.336Z,96079.41
2023-01-29T19:52:50.881Z,96068.28
2023-01-29T19:55:24.086Z,96064.91
2023-01-29T19:57:57.640Z,96064.72
2023-01-29T20:00:27.636Z,96071.44
2023-01-29T20:02:57.633Z,96062.09
2023-01-29T20:05:27.623Z,96063.28
2023-01-29T20:07:57.756Z,96062.59
2023-01-29T20:10:30.221Z,96060.47
2023-01-29T20:12:59.980Z,96057.84
2023-01-29T20:15:29.894Z,96058.97
2023-01-29T20:17:59.710Z,96056.22
2023-01-29T20:20:31.110Z,96060.53
2023-01-29T20:23:03.063Z,96059.41
2023-01-29T20:25:35.851Z,96062.56
2023-01-29T20:28:07.939Z,96058.28
2023-01-29T20:30:38.591Z,96060.50
2023-01-29T20:33:09.498Z,96059.78
2023-01-29T20:35:40.447Z,96059.47
2023-01-29T20:38:10.415Z,96062.53
2023-01-29T20:40:42.902Z,96066.19
2023-01-29T20:43:12.680Z,96062.66
2023-01-29T20:45:42.902Z,96061.03
2023-01-29T20:48:12.762Z,96053.69
2023-01-29T20:50:43.227Z,96049.50
2023-01-29T20:53:13.789Z,96041.44
2023-01-29T20:55:48.096Z,96040.75
2023-01-29T20:58:17.993Z,96038.81
2023-01-29T21:00:48.563Z,96039.84
2023-01-29T21:03:18.383Z,96036.75
2023-01-29T21:05:48.323Z,96039.03
2023-01-29T21:08:18.542Z,96040.81
2023-01-29T21:10:52.032Z,96044.00
2023-01-29T21:13:22.466Z,96043.31
2023-01-29T21:15:52.893Z,96041.88
2023-01-29T21:18:23.218Z,96031.38
2023-01-29T21:20:53.140Z,96033.53
2023-01-29T21:23:23.209Z,96032.31
2023-01-29T21:25:55.609Z,96034.91
2023-01-29T21:28:25.372Z,96039.34
2023-01-29T21:31:05.540Z,96039.63
2023-01-29T21:33:35.803Z,96036.78
2023-01-29T21:36:12.727Z,96037.84
2023-01-29T21:38:42.788Z,96045.97
2023-01-29T21:41:15.399Z,96041.56
2023-01-29T21:43:42.674Z,96036.97
2023-01-29T21:46:14.099Z,96039.53
2023-01-29T21:48:43.983Z,96040.22
2023-01-29T21:51:14.027Z,96035.22
2023-01-29T21:53:43.829Z,96038.38
2023-01-29T21:56:19.588Z,96035.09
2023-01-29T21:58:50.141Z,96034.97
2023-01-29T22:01:37.469Z,96032.78
2023-01-29T22:04:10.076Z,96028.41
2023-01-29T22:06:39.968Z,96027.97
2023-01-29T22:09:10.275Z,96023.75
2023-01-29T22:11:43.542Z,96023.75
2023-01-29T22:14:13.381Z,96023.31
2023-01-29T22:16:43.246Z,96032.09
2023-01-29T22:19:13.421Z,96032.31
2023-01-29T22:21:44.016Z,96026.38
2023-01-29T22:24:13.947Z,96018.94
2023-01-29T22:26:47.855Z,96019.06
2023-01-29T22:29:20.032Z,96017.31
2023-01-29T22:31:50.108Z,96009.84
2023-01-29T22:34:19.862Z,96013.22
2023-01-29T22:36:49.692Z,95999.03
2023-01-29T22:39:19.607Z,96002.94
2023-01-29T22:41:52.061Z,95986.88
2023-01-29T22:44:21.845Z,95981.84
2023-01-29T22:46:51.670Z,95985.78
2023-01-29T22:49:23.307Z,95974.97
2023-01-29T22:52:10.143Z,95969.25
2023-01-29T22:54:41.935Z,95969.44
2023-01-29T22:57:16.705Z,95953.22
2023-01-29T22:59:46.650Z,95951.03
2023-01-29T23:02:16.546Z,95952.66
2023-01-29T23:04:46.958Z,95942.94
2023-01-29T23:07:16.800Z,95936.06
2023-01-29T23:09:46.770Z,95933.63
2023-01-29T23:12:19.447Z,95925.16
2023-01-29T23:14:49.728Z,95931.06
2023-01-29T23:17:19.583Z,95934.13
2023-01-29T23:19:49.616Z,95929.16
2023-01-29T23:22:19.452Z,95919.44
2023-01-29T23:24:49.601Z,95922.53
2023-01-29T23:27:20.197Z,95924.44
2023-01-29T23:29:51.857Z,95919.84
2023-01-29T23:32:23.741Z,95914.28
2023-01-29T23:34:53.629Z,95922.34
2023-01-29T23:37:23.434Z,95914.28
2023-01-29T23:39:54.055Z,95917.41
2023-01-29T23:42:26.848Z,95911.47
2023-01-29T23:44:56.769Z,95908.75
2023-01-29T23:47:26.622Z,95911.47
2023-01-29T23:49:57.076Z,95904.56
2023-01-29T23:52:26.949Z,95898.50
2023-01-29T23:54:56.773Z,95899.22
2023-01-29T23:57:29.197Z,95894.19
2023-01-29T23:59:59.101Z,95891.25
